createdAt,value
2022-12-29T00:01:08.367Z,100.00
2022-12-29T00:03:38.241Z,100.00
2022-12-29T00:06:08.057Z,100.00
2022-12-29T00:08:43.479Z,100.00
2022-12-29T00:11:16.012Z,100.00
2022-12-29T00:14:03.980Z,100.00
2022-12-29T00:16:35.051Z,100.00
2022-12-29T00:19:05.814Z,100.00
2022-12-29T00:21:53.247Z,100.00
2022-12-29T00:24:24.450Z,100.00
2022-12-29T00:27:19.511Z,100.00
2022-12-29T00:30:07.210Z,100.00
2022-12-29T00:32:55.178Z,100.00
2022-12-29T00:35:32.207Z,100.00
2022-12-29T00:38:25.534Z,100.00
2022-12-29T00:41:13.240Z,100.00
2022-12-29T00:44:01.806Z,100.00
2022-12-29T00:46:31.942Z,100.00
2022-12-29T00:49:20.252Z,100.00
2022-12-29T00:51:50.825Z,100.00
2022-12-29T00:54:21.214Z,100.00
2022-12-29T00:56:55.276Z,99.72
2022-12-29T00:59:26.192Z,99.46
2022-12-29T01:02:01.522Z,99.68
2022-12-29T01:04:34.799Z,99.41
2022-12-29T01:07:07.550Z,99.46
2022-12-29T01:09:57.402Z,99.55
2022-12-29T01:12:43.125Z,99.80
2022-12-29T01:15:16.748Z,99.67
2022-12-29T01:17:47.574Z,99.56
2022-12-29T01:20:18.316Z,99.26
2022-12-29T01:22:49.796Z,99.67
2022-12-29T01:25:23.407Z,99.39
2022-12-29T01:27:53.709Z,99.50
2022-12-29T01:30:23.933Z,99.22
2022-12-29T01:32:56.206Z,99.37
2022-12-29T01:35:26.015Z,99.30
2022-12-29T01:37:56.967Z,99.20
2022-12-29T01:40:27.328Z,99.38
2022-12-29T01:42:58.004Z,99.33
2022-12-29T01:45:28.236Z,99.70
2022-12-29T01:48:08.040Z,99.96
2022-12-29T01:50:57.015Z,99.37
2022-12-29T01:53:34.080Z,99.35
2022-12-29T01:56:09.993Z,99.46
2022-12-29T01:58:47.673Z,99.39
2022-12-29T02:01:21.245Z,98.99
2022-12-29T02:03:53.351Z,99.62
2022-12-29T02:06:39.985Z,99.95
2022-12-29T02:09:10.271Z,99.19
2022-12-29T02:11:42.379Z,99.81
2022-12-29T02:14:14.579Z,99.18
2022-12-29T02:17:10.659Z,99.18
2022-12-29T02:19:49.952Z,99.44
2022-12-29T02:22:42.928Z,100.00
2022-12-29T02:25:21.654Z,100.00
2022-12-29T02:28:42.477Z,99.97
2022-12-29T02:31:30.775Z,99.18
2022-12-29T02:34:16.422Z,99.11
2022-12-29T02:37:30.112Z,99.22
2022-12-29T02:40:23.434Z,99.19
2022-12-29T02:43:23.816Z,99.38
2022-12-29T02:45:57.824Z,98.98
2022-12-29T02:48:46.424Z,99.31
2022-12-29T02:51:26.782Z,99.61
2022-12-29T02:54:16.039Z,99.78
2022-12-29T02:56:47.290Z,99.20
2022-12-29T02:59:18.067Z,99.14
2022-12-29T03:02:19.572Z,99.06
2022-12-29T03:05:18.910Z,98.88
2022-12-29T03:08:07.569Z,99.17
2022-12-29T03:11:05.955Z,99.40
2022-12-29T03:14:08.965Z,99.15
2022-12-29T03:16:47.724Z,98.49
2022-12-29T03:19:38.125Z,98.09
2022-12-29T03:22:33.324Z,97.55
2022-12-29T03:25:25.657Z,97.75
2022-12-29T03:28:02.891Z,98.70
2022-12-29T03:30:38.752Z,98.54
2022-12-29T03:33:15.176Z,97.63
2022-12-29T03:35:49.308Z,98.26
2022-12-29T03:38:26.985Z,97.68
2022-12-29T03:41:05.532Z,97.58
2022-12-29T03:43:37.151Z,98.07
2022-12-29T03:46:07.667Z,97.32
2022-12-29T03:48:38.681Z,97.54
2022-12-29T03:51:09.079Z,97.84
2022-12-29T03:53:39.637Z,97.77
2022-12-29T03:56:10.249Z,97.65
2022-12-29T03:58:41.073Z,98.56
2022-12-29T04:01:19.187Z,98.48
2022-12-29T04:03:49.578Z,98.37
2022-12-29T04:06:20.185Z,98.46
2022-12-29T04:09:09.400Z,98.44
2022-12-29T04:11:46.791Z,99.69
2022-12-29T04:14:17.184Z,99.48
2022-12-29T04:16:48.934Z,99.00
2022-12-29T04:19:20.170Z,99.02
2022-12-29T04:21:52.029Z,98.82
2022-12-29T04:24:22.749Z,99.12
2022-12-29T04:26:53.698Z,99.12
2022-12-29T04:29:44.249Z,98.46
2022-12-29T04:32:34.050Z,98.03
2022-12-29T04:35:05.046Z,97.54
2022-12-29T04:37:35.902Z,97.71
2022-12-29T04:40:07.214Z,98.47
2022-12-29T04:42:38.310Z,97.91
2022-12-29T04:45:10.969Z,97.00
2022-12-29T04:47:56.216Z,97.37
2022-12-29T04:50:41.439Z,97.41
2022-12-29T04:53:21.969Z,97.72
2022-12-29T04:55:54.436Z,97.64
2022-12-29T04:58:25.277Z,97.76
2022-12-29T05:00:56.462Z,97.28
2022-12-29T05:03:29.907Z,96.75
2022-12-29T05:06:00.738Z,96.57
2022-12-29T05:08:31.504Z,96.30
2022-12-29T05:11:04.033Z,95.04
2022-12-29T05:13:34.616Z,94.57
2022-12-29T05:16:06.984Z,93.06
2022-12-29T05:18:38.044Z,90.93
2022-12-29T05:21:09.328Z,89.61
2022-12-29T05:23:40.761Z,88.66
2022-12-29T05:26:11.462Z,88.37
2022-12-29T05:28:56.011Z,85.45
2022-12-29T05:31:26.666Z,84.51
2022-12-29T05:33:56.989Z,82.66
2022-12-29T05:36:30.625Z,82.46
2022-12-29T05:39:06.289Z,82.50
2022-12-29T05:41:38.257Z,81.69
2022-12-29T05:44:13.090Z,81.64
2022-12-29T05:46:51.159Z,82.87
2022-12-29T05:49:46.346Z,83.85
2022-12-29T05:52:36.600Z,83.94
2022-12-29T05:55:07.865Z,84.55
2022-12-29T05:57:40.162Z,86.14
2022-12-29T06:00:15.044Z,87.64
2022-12-29T06:02:47.157Z,87.47
2022-12-29T06:05:19.580Z,87.67
2022-12-29T06:07:50.588Z,88.61
2022-12-29T06:10:21.878Z,88.56
2022-12-29T06:13:07.609Z,87.90
2022-12-29T06:15:45.794Z,87.86
2022-12-29T06:18:20.064Z,87.41
2022-12-29T06:21:12.879Z,87.46
2022-12-29T06:23:43.798Z,86.82
2022-12-29T06:26:26.772Z,87.63
2022-12-29T06:28:57.616Z,88.09
2022-12-29T06:31:27.893Z,88.89
2022-12-29T06:34:01.268Z,88.74
2022-12-29T06:36:34.026Z,89.43
2022-12-29T06:39:04.140Z,91.25
2022-12-29T06:41:34.646Z,91.42
2022-12-29T06:44:30.999Z,92.52
2022-12-29T06:47:04.097Z,93.08
2022-12-29T06:49:33.901Z,93.10
2022-12-29T06:52:12.290Z,95.16
2022-12-29T06:54:42.632Z,94.57
2022-12-29T06:57:12.381Z,94.01
2022-12-29T06:59:43.619Z,93.16
2022-12-29T07:02:17.216Z,93.05
2022-12-29T07:04:47.351Z,92.16
2022-12-29T07:07:17.572Z,91.49
2022-12-29T07:09:48.510Z,93.21
2022-12-29T07:12:18.326Z,93.58
2022-12-29T07:14:47.839Z,94.62
2022-12-29T07:17:17.958Z,95.28
2022-12-29T07:19:47.730Z,95.33
2022-12-29T07:22:17.323Z,95.00
2022-12-29T07:24:46.812Z,94.02
2022-12-29T07:27:16.320Z,93.67
2022-12-29T07:29:46.512Z,93.15
2022-12-29T07:32:16.382Z,92.41
2022-12-29T07:34:50.287Z,92.26
2022-12-29T07:37:21.550Z,93.41
2022-12-29T07:39:51.010Z,92.78
2022-12-29T07:42:20.725Z,93.19
2022-12-29T07:44:54.667Z,93.02
2022-12-29T07:47:39.320Z,95.32
2022-12-29T07:50:09.468Z,94.55
2022-12-29T07:52:39.080Z,94.45
2022-12-29T07:55:09.406Z,93.65
2022-12-29T07:57:39.199Z,92.77
2022-12-29T08:00:09.409Z,92.01
2022-12-29T08:02:42.226Z,92.13
2022-12-29T08:05:11.960Z,91.46
2022-12-29T08:07:42.090Z,90.58
2022-12-29T08:10:12.342Z,90.18
2022-12-29T08:12:43.559Z,90.73
2022-12-29T08:15:14.888Z,91.35
2022-12-29T08:17:44.635Z,91.24
2022-12-29T08:20:14.787Z,91.65
2022-12-29T08:22:45.049Z,92.37
2022-12-29T08:25:16.241Z,92.06
2022-12-29T08:27:46.543Z,91.78
2022-12-29T08:30:16.564Z,92.19
2022-12-29T08:32:46.136Z,92.10
2022-12-29T08:35:15.804Z,92.06
2022-12-29T08:37:45.465Z,92.32
2022-12-29T08:40:15.987Z,92.27
2022-12-29T08:42:46.583Z,91.76
2022-12-29T08:45:16.258Z,91.79
2022-12-29T08:47:45.663Z,91.88
2022-12-29T08:50:15.328Z,91.83
2022-12-29T08:52:45.019Z,92.07
2022-12-29T08:55:15.205Z,91.68
2022-12-29T08:57:45.404Z,91.69
2022-12-29T09:00:20.124Z,91.67
2022-12-29T09:02:50.244Z,92.06
2022-12-29T09:05:20.201Z,92.33
2022-12-29T09:07:49.919Z,92.13
2022-12-29T09:10:19.567Z,93.13
2022-12-29T09:12:49.103Z,93.86
2022-12-29T09:15:19.048Z,94.29
2022-12-29T09:17:49.165Z,94.06
2022-12-29T09:20:22.190Z,93.92
2022-12-29T09:22:52.499Z,94.42
2022-12-29T09:25:24.985Z,93.99
2022-12-29T09:27:55.955Z,93.13
2022-12-29T09:30:27.010Z,93.74
2022-12-29T09:32:56.686Z,93.64
2022-12-29T09:35:26.912Z,93.67
2022-12-29T09:37:56.597Z,93.90
2022-12-29T09:40:34.795Z,93.98
2022-12-29T09:43:15.106Z,93.76
2022-12-29T09:45:49.648Z,93.44
2022-12-29T09:48:25.290Z,94.32
2022-12-29T09:51:11.322Z,95.00
2022-12-29T09:53:52.439Z,95.88
2022-12-29T09:56:27.776Z,95.39
2022-12-29T09:59:07.337Z,95.04
2022-12-29T10:01:55.218Z,95.36
2022-12-29T10:04:25.219Z,96.14
2022-12-29T10:07:30.948Z,95.91
2022-12-29T10:10:05.888Z,97.40
2022-12-29T10:12:54.077Z,98.45
2022-12-29T10:15:57.475Z,97.46
2022-12-29T10:18:54.864Z,97.59
2022-12-29T10:21:41.213Z,98.49
2022-12-29T10:24:14.591Z,98.82
2022-12-29T10:26:46.762Z,98.76
2022-12-29T10:29:19.664Z,98.30
2022-12-29T10:32:02.251Z,99.02
2022-12-29T10:34:40.783Z,98.77
2022-12-29T10:37:36.705Z,99.69
2022-12-29T10:40:35.633Z,98.87
2022-12-29T10:43:21.263Z,98.93
2022-12-29T10:45:51.596Z,98.33
2022-12-29T10:48:33.321Z,99.03
2022-12-29T10:51:06.855Z,99.65
2022-12-29T10:53:49.231Z,98.64
2022-12-29T10:56:40.540Z,97.83
2022-12-29T10:59:26.730Z,96.41
2022-12-29T11:02:02.628Z,97.07
2022-12-29T11:05:06.512Z,96.67
2022-12-29T11:07:36.092Z,98.82
2022-12-29T11:10:32.707Z,98.87
2022-12-29T11:13:06.584Z,98.13
2022-12-29T11:15:44.773Z,96.25
2022-12-29T11:18:29.265Z,98.54
2022-12-29T11:21:02.572Z,98.34
2022-12-29T11:23:36.064Z,97.17
2022-12-29T11:26:24.556Z,99.65
2022-12-29T11:29:11.150Z,99.81
2022-12-29T11:31:48.994Z,99.19
2022-12-29T11:34:23.814Z,98.24
2022-12-29T11:37:01.155Z,96.94
2022-12-29T11:39:50.001Z,96.02
2022-12-29T11:42:24.193Z,98.76
2022-12-29T11:44:54.958Z,100.00
2022-12-29T11:47:34.354Z,100.00
2022-12-29T11:50:07.805Z,99.78
2022-12-29T11:52:41.734Z,99.36
2022-12-29T11:55:23.090Z,100.00
2022-12-29T11:57:54.930Z,100.00
2022-12-29T12:00:29.907Z,99.21
2022-12-29T12:03:15.981Z,99.17
2022-12-29T12:05:56.021Z,99.49
2022-12-29T12:08:44.487Z,99.57
2022-12-29T12:11:55.958Z,99.47
2022-12-29T12:15:02.435Z,100.00
2022-12-29T12:17:55.485Z,99.71
2022-12-29T12:20:35.551Z,97.99
2022-12-29T12:23:29.926Z,97.03
2022-12-29T12:26:16.001Z,96.61
2022-12-29T12:29:03.639Z,95.43
2022-12-29T12:31:52.652Z,96.11
2022-12-29T12:34:38.744Z,96.92
2022-12-29T12:37:25.432Z,96.39
2022-12-29T12:40:25.642Z,95.27
2022-12-29T12:43:46.448Z,96.67
2022-12-29T12:46:52.305Z,96.42
2022-12-29T12:49:51.604Z,97.76
2022-12-29T12:52:31.950Z,97.29
2022-12-29T12:55:32.229Z,97.16
2022-12-29T12:58:36.679Z,97.80
2022-12-29T13:01:24.796Z,98.32
2022-12-29T13:04:03.818Z,97.80
2022-12-29T13:06:45.032Z,98.34
2022-12-29T13:10:11.712Z,99.70
2022-12-29T13:12:50.586Z,99.48
2022-12-29T13:15:38.836Z,100.00
2022-12-29T13:18:16.548Z,100.00
2022-12-29T13:20:58.429Z,100.00
2022-12-29T13:23:47.074Z,100.00
2022-12-29T13:26:19.928Z,100.00
2022-12-29T13:29:06.780Z,100.00
2022-12-29T13:31:58.927Z,99.33
2022-12-29T13:34:43.641Z,99.40
2022-12-29T13:37:21.109Z,98.47
2022-12-29T13:40:12.719Z,97.83
2022-12-29T13:42:43.548Z,97.47
2022-12-29T13:45:27.009Z,97.48
2022-12-29T13:48:09.658Z,97.51
2022-12-29T13:50:43.933Z,97.79
2022-12-29T13:53:37.386Z,98.51
2022-12-29T13:56:26.993Z,98.52
2022-12-29T13:59:42.780Z,98.92
2022-12-29T14:02:30.372Z,98.24
2022-12-29T14:05:24.655Z,97.68
2022-12-29T14:08:06.989Z,97.46
2022-12-29T14:10:53.917Z,97.44
2022-12-29T14:13:28.498Z,96.95
2022-12-29T14:16:01.273Z,97.32
2022-12-29T14:18:45.956Z,97.67
2022-12-29T14:21:31.719Z,98.84
2022-12-29T14:24:42.389Z,99.24
2022-12-29T14:27:15.012Z,100.00
2022-12-29T14:29:46.264Z,99.67
2022-12-29T14:32:36.121Z,100.00
2022-12-29T14:35:41.576Z,99.90
2022-12-29T14:38:20.968Z,100.00
2022-12-29T14:40:51.629Z,100.00
2022-12-29T14:43:28.632Z,100.00
2022-12-29T14:46:01.707Z,100.00
2022-12-29T14:48:36.213Z,100.00
2022-12-29T14:51:33.467Z,100.00
2022-12-29T14:54:22.782Z,100.00
2022-12-29T14:56:52.749Z,100.00
2022-12-29T14:59:23.111Z,100.00
2022-12-29T15:01:58.041Z,100.00
2022-12-29T15:04:35.621Z,100.00
2022-12-29T15:07:10.806Z,100.00
2022-12-29T15:09:52.856Z,100.00
2022-12-29T15:12:22.674Z,100.00
2022-12-29T15:14:57.855Z,100.00
2022-12-29T15:17:29.105Z,100.00
2022-12-29T15:20:00.889Z,100.00
2022-12-29T15:22:30.671Z,100.00
2022-12-29T15:25:01.085Z,100.00
2022-12-29T15:27:31.474Z,100.00
2022-12-29T15:30:11.794Z,100.00
2022-12-29T15:32:49.812Z,99.98
2022-12-29T15:35:32.068Z,100.00
2022-12-29T15:38:02.104Z,100.00
2022-12-29T15:40:34.751Z,100.00
2022-12-29T15:43:33.381Z,100.00
2022-12-29T15:46:04.939Z,100.00
2022-12-29T15:48:35.548Z,100.00
2022-12-29T15:51:05.699Z,100.00
2022-12-29T15:53:36.289Z,100.00
2022-12-29T15:56:13.210Z,100.00
2022-12-29T15:58:52.343Z,100.00
2022-12-29T16:01:33.997Z,100.00
2022-12-29T16:04:08.648Z,100.00
2022-12-29T16:06:40.863Z,100.00
2022-12-29T16:09:19.941Z,100.00
2022-12-29T16:11:56.045Z,100.00
2022-12-29T16:14:48.211Z,100.00
2022-12-29T16:17:23.108Z,100.00
2022-12-29T16:19:59.714Z,100.00
2022-12-29T16:22:42.829Z,100.00
2022-12-29T16:25:20.919Z,99.83
2022-12-29T16:27:52.342Z,99.20
2022-12-29T16:30:33.182Z,98.94
2022-12-29T16:33:06.736Z,98.44
2022-12-29T16:35:50.168Z,98.19
2022-12-29T16:38:23.511Z,98.10
2022-12-29T16:41:04.267Z,98.77
2022-12-29T16:43:44.542Z,98.82
2022-12-29T16:46:34.814Z,99.16
2022-12-29T16:49:04.671Z,98.88
2022-12-29T16:51:38.212Z,99.03
2022-12-29T16:54:09.400Z,99.71
2022-12-29T16:56:40.978Z,98.86
2022-12-29T16:59:26.174Z,98.18
2022-12-29T17:01:56.605Z,97.84
2022-12-29T17:04:26.456Z,97.44
2022-12-29T17:06:55.808Z,97.75
2022-12-29T17:09:28.658Z,99.35
2022-12-29T17:12:08.683Z,99.61
2022-12-29T17:14:43.207Z,98.89
2022-12-29T17:17:15.570Z,99.20
2022-12-29T17:19:51.735Z,98.33
2022-12-29T17:22:30.105Z,98.67
2022-12-29T17:25:02.176Z,99.01
2022-12-29T17:27:39.909Z,99.23
2022-12-29T17:30:15.528Z,98.74
2022-12-29T17:32:51.493Z,97.89
2022-12-29T17:35:23.553Z,98.21
2022-12-29T17:37:53.826Z,98.61
2022-12-29T17:40:28.492Z,98.07
2022-12-29T17:43:00.112Z,98.46
2022-12-29T17:45:34.239Z,98.48
2022-12-29T17:48:04.014Z,97.88
2022-12-29T17:50:33.901Z,97.35
2022-12-29T17:53:12.289Z,97.04
2022-12-29T17:55:42.428Z,96.95
2022-12-29T17:58:25.281Z,97.11
2022-12-29T18:00:57.507Z,96.67
2022-12-29T18:03:31.875Z,96.86
2022-12-29T18:06:02.175Z,96.69
2022-12-29T18:08:32.039Z,96.23
2022-12-29T18:11:01.867Z,96.39
2022-12-29T18:13:45.554Z,96.37
2022-12-29T18:16:16.622Z,96.23
2022-12-29T18:18:47.116Z,97.37
2022-12-29T18:21:22.758Z,96.91
2022-12-29T18:23:53.366Z,97.45
2022-12-29T18:26:27.931Z,96.89
2022-12-29T18:28:59.789Z,97.78
2022-12-29T18:31:35.143Z,97.29
2022-12-29T18:34:14.851Z,97.19
2022-12-29T18:36:44.860Z,96.71
2022-12-29T18:39:14.613Z,96.53
2022-12-29T18:41:44.101Z,97.58
2022-12-29T18:44:15.111Z,97.34
2022-12-29T18:46:44.650Z,98.24
2022-12-29T18:49:14.984Z,99.34
2022-12-29T18:51:44.618Z,98.21
2022-12-29T18:54:46.413Z,97.91
2022-12-29T18:57:16.127Z,97.78
2022-12-29T18:59:45.794Z,97.54
2022-12-29T19:02:19.072Z,98.29
2022-12-29T19:04:52.833Z,98.78
2022-12-29T19:07:23.184Z,98.32
2022-12-29T19:09:52.862Z,99.22
2022-12-29T19:12:28.105Z,100.00
2022-12-29T19:14:58.454Z,99.11
2022-12-29T19:17:28.012Z,98.74
2022-12-29T19:19:57.827Z,98.85
2022-12-29T19:22:27.394Z,98.96
2022-12-29T19:25:00.047Z,98.95
2022-12-29T19:27:30.154Z,98.72
2022-12-29T19:30:00.024Z,99.02
2022-12-29T19:32:29.657Z,99.53
2022-12-29T19:34:59.293Z,99.48
2022-12-29T19:37:29.079Z,99.42
2022-12-29T19:39:58.805Z,99.28
2022-12-29T19:42:28.420Z,100.00
2022-12-29T19:44:58.266Z,100.00
2022-12-29T19:47:31.902Z,100.00
2022-12-29T19:50:03.183Z,100.00
2022-12-29T19:52:33.172Z,99.90
2022-12-29T19:55:04.523Z,100.00
2022-12-29T19:57:34.251Z,100.00
2022-12-29T20:00:04.391Z,100.00
2022-12-29T20:02:41.332Z,99.72
2022-12-29T20:05:12.370Z,99.90
2022-12-29T20:07:42.062Z,99.87
2022-12-29T20:10:11.772Z,99.75
2022-12-29T20:12:41.392Z,99.83
2022-12-29T20:15:12.997Z,99.69
2022-12-29T20:20:35.943Z,100.00
2022-12-29T20:23:05.697Z,100.00
2022-12-29T20:25:44.873Z,100.00
2022-12-29T20:28:16.643Z,100.00
2022-12-29T20:30:46.548Z,100.00
2022-12-29T20:33:16.207Z,100.00
2022-12-29T20:35:46.412Z,100.00
2022-12-29T20:38:16.040Z,100.00
2022-12-29T20:40:47.748Z,100.00
2022-12-29T20:43:18.022Z,100.00
2022-12-29T20:45:47.898Z,100.00
2022-12-29T20:48:17.701Z,100.00
2022-12-29T20:50:47.468Z,100.00
2022-12-29T20:53:17.148Z,100.00
2022-12-29T20:55:46.775Z,100.00
2022-12-29T20:58:24.599Z,100.00
2022-12-29T21:00:55.870Z,100.00
2022-12-29T21:03:26.142Z,100.00
2022-12-29T21:05:56.530Z,100.00
2022-12-29T21:08:26.231Z,100.00
2022-12-29T21:10:55.876Z,100.00
2022-12-29T21:13:25.815Z,100.00
2022-12-29T21:16:04.735Z,100.00
2022-12-29T21:18:34.803Z,100.00
2022-12-29T21:21:07.585Z,100.00
2022-12-29T21:23:41.289Z,100.00
2022-12-29T21:26:12.737Z,100.00
2022-12-29T21:28:44.787Z,100.00
2022-12-29T21:31:35.834Z,100.00
2022-12-29T21:34:07.356Z,100.00
2022-12-29T21:36:37.073Z,100.00
2022-12-29T21:39:06.908Z,100.00
2022-12-29T21:41:36.474Z,100.00
2022-12-29T21:44:24.446Z,100.00
2022-12-29T21:46:54.339Z,100.00
2022-12-29T21:49:26.287Z,100.00
2022-12-29T21:51:57.181Z,100.00
2022-12-29T21:54:47.853Z,100.00
2022-12-29T21:57:37.621Z,100.00
2022-12-29T22:00:27.671Z,100.00
2022-12-29T22:03:22.478Z,100.00
2022-12-29T22:06:11.863Z,100.00
2022-12-29T22:09:00.111Z,100.00
2022-12-29T22:11:48.214Z,100.00
2022-12-29T22:14:18.007Z,100.00
2022-12-29T22:16:47.463Z,100.00
2022-12-29T22:19:17.422Z,100.00
2022-12-29T22:21:46.884Z,100.00
2022-12-29T22:24:16.560Z,100.00
2022-12-29T22:26:46.046Z,100.00
2022-12-29T22:29:15.756Z,100.00
2022-12-29T22:31:45.480Z,100.00
2022-12-29T22:34:15.888Z,100.00
2022-12-29T22:36:45.363Z,100.00
2022-12-29T22:39:14.753Z,100.00
2022-12-29T22:41:44.432Z,100.00
2022-12-29T22:44:14.040Z,100.00
2022-12-29T22:46:43.391Z,100.00
2022-12-29T22:49:13.081Z,100.00
2022-12-29T22:51:42.788Z,100.00
2022-12-29T22:54:12.153Z,100.00
2022-12-29T22:56:43.508Z,100.00
2022-12-29T22:59:14.661Z,100.00
2022-12-29T23:01:44.804Z,100.00
2022-12-29T23:04:59.379Z,100.00
2022-12-29T23:07:04.760Z,100.00
2022-12-29T23:09:34.336Z,100.00
2022-12-29T23:12:03.817Z,100.00
2022-12-29T23:14:33.464Z,100.00
2022-12-29T23:17:03.114Z,100.00
2022-12-29T23:19:32.886Z,100.00
2022-12-29T23:22:03.534Z,100.00
2022-12-29T23:24:33.476Z,100.00
2022-12-29T23:27:03.092Z,100.00
2022-12-29T23:29:32.930Z,100.00
2022-12-29T23:32:02.364Z,100.00
2022-12-29T23:34:31.829Z,100.00
2022-12-29T23:37:01.861Z,100.00
2022-12-29T23:39:31.778Z,100.00
2022-12-29T23:42:01.425Z,100.00
2022-12-29T23:44:31.195Z,100.00
2022-12-29T23:47:00.946Z,100.00
2022-12-29T23:49:30.473Z,100.00
2022-12-29T23:52:00.198Z,100.00
2022-12-29T23:54:29.533Z,100.00
2022-12-29T23:56:59.034Z,100.00
2022-12-29T23:59:28.667Z,100.00
